sensor_id;sensor_type;location;lat;lon;timestamp;temperature;humidity
11107;DHT22;5607;48.302;14.294;2023-11-21T00:02:21;7.20;1.00
11107;DHT22;5607;48.302;14.294;2023-11-21T00:05:11;7.20;1.00
11107;DHT22;5607;48.302;14.294;2023-11-21T00:08:00;7.20;1.00
11107;DHT22;5607;48.302;14.294;2023-11-21T00:10:46;7.10;1.00
11107;DHT22;5607;48.302;14.294;2023-11-21T00:13:32;7.00;1.00
11107;DHT22;5607;48.302;14.294;2023-11-21T00:16:18;7.00;1.00
11107;DHT22;5607;48.302;14.294;2023-11-21T00:19:05;7.10;1.00
11107;DHT22;5607;48.302;14.294;2023-11-21T00:21:51;7.00;1.00
11107;DHT22;5607;48.302;14.294;2023-11-21T00:24:37;7.10;1.00
11107;DHT22;5607;48.302;14.294;2023-11-21T00:27:24;7.10;1.00
11107;DHT22;5607;48.302;14.294;2023-11-21T00:30:10;7.20;1.00
11107;DHT22;5607;48.302;14.294;2023-11-21T00:32:57;7.20;1.00
11107;DHT22;5607;48.302;14.294;2023-11-21T00:35:43;7.20;1.00
11107;DHT22;5607;48.302;14.294;2023-11-21T00:38:29;7.30;1.00
11107;DHT22;5607;48.302;14.294;2023-11-21T00:41:16;7.40;1.00
11107;DHT22;5607;48.302;14.294;2023-11-21T00:44:02;7.40;1.00
11107;DHT22;5607;48.302;14.294;2023-11-21T00:46:49;7.40;1.00
11107;DHT22;5607;48.302;14.294;2023-11-21T00:49:36;7.40;1.00
11107;DHT22;5607;48.302;14.294;2023-11-21T00:52:22;7.40;1.00
11107;DHT22;5607;48.302;14.294;2023-11-21T00:55:09;7.40;1.00
11107;DHT22;5607;48.302;14.294;2023-11-21T00:57:56;7.40;1.00
11107;DHT22;5607;48.302;14.294;2023-11-21T01:00:42;7.30;1.00
11107;DHT22;5607;48.302;14.294;2023-11-21T01:03:28;7.30;1.00
11107;DHT22;5607;48.302;14.294;2023-11-21T01:06:15;7.40;1.00
11107;DHT22;5607;48.302;14.294;2023-11-21T01:09:01;7.40;1.00
11107;DHT22;5607;48.302;14.294;2023-11-21T01:11:50;7.50;1.00
11107;DHT22;5607;48.302;14.294;2023-11-21T01:14:37;7.50;1.00
11107;DHT22;5607;48.302;14.294;2023-11-21T01:17:24;7.50;1.00
11107;DHT22;5607;48.302;14.294;2023-11-21T01:20:10;7.50;1.00
11107;DHT22;5607;48.302;14.294;2023-11-21T01:22:58;7.60;1.00
11107;DHT22;5607;48.302;14.294;2023-11-21T01:25:44;7.60;1.00
11107;DHT22;5607;48.302;14.294;2023-11-21T01:28:30;7.70;1.00
11107;DHT22;5607;48.302;14.294;2023-11-21T01:31:16;7.60;1.00
11107;DHT22;5607;48.302;14.294;2023-11-21T01:34:03;7.60;1.00
11107;DHT22;5607;48.302;14.294;2023-11-21T01:36:49;7.60;1.00
11107;DHT22;5607;48.302;14.294;2023-11-21T01:39:35;7.70;1.00
11107;DHT22;5607;48.302;14.294;2023-11-21T01:42:25;7.70;1.00
11107;DHT22;5607;48.302;14.294;2023-11-21T01:45:11;7.80;1.00
11107;DHT22;5607;48.302;14.294;2023-11-21T01:47:58;7.80;1.00
11107;DHT22;5607;48.302;14.294;2023-11-21T01:50:45;7.70;1.00
11107;DHT22;5607;48.302;14.294;2023-11-21T01:53:31;7.70;1.00
11107;DHT22;5607;48.302;14.294;2023-11-21T01:56:19;7.70;1.00
11107;DHT22;5607;48.302;14.294;2023-11-21T01:59:05;7.60;1.00
11107;DHT22;5607;48.302;14.294;2023-11-21T02:01:53;7.60;1.00
11107;DHT22;5607;48.302;14.294;2023-11-21T02:04:42;7.60;1.00
11107;DHT22;5607;48.302;14.294;2023-11-21T02:07:28;7.50;1.00
11107;DHT22;5607;48.302;14.294;2023-11-21T02:10:15;7.40;1.00
11107;DHT22;5607;48.302;14.294;2023-11-21T02:13:01;7.30;1.00
11107;DHT22;5607;48.302;14.294;2023-11-21T02:15:48;7.30;1.00
11107;DHT22;5607;48.302;14.294;2023-11-21T02:18:38;7.40;1.00
11107;DHT22;5607;48.302;14.294;2023-11-21T02:21:25;7.40;1.00
11107;DHT22;5607;48.302;14.294;2023-11-21T02:24:11;7.40;1.00
11107;DHT22;5607;48.302;14.294;2023-11-21T02:26:58;7.30;1.00
11107;DHT22;5607;48.302;14.294;2023-11-21T02:29:44;7.30;1.00
11107;DHT22;5607;48.302;14.294;2023-11-21T02:32:30;7.30;1.00
11107;DHT22;5607;48.302;14.294;2023-11-21T02:35:17;7.30;1.00
11107;DHT22;5607;48.302;14.294;2023-11-21T02:38:03;7.30;1.00
11107;DHT22;5607;48.302;14.294;2023-11-21T02:40:51;7.30;1.00
11107;DHT22;5607;48.302;14.294;2023-11-21T02:43:37;7.40;1.00
11107;DHT22;5607;48.302;14.294;2023-11-21T02:46:24;7.30;1.00
11107;DHT22;5607;48.302;14.294;2023-11-21T02:49:10;7.40;1.00
11107;DHT22;5607;48.302;14.294;2023-11-21T02:51:57;7.40;1.00
11107;DHT22;5607;48.302;14.294;2023-11-21T02:54:44;7.40;1.00
11107;DHT22;5607;48.302;14.294;2023-11-21T02:57:30;7.30;1.00
11107;DHT22;5607;48.302;14.294;2023-11-21T03:00:16;7.40;1.00
11107;DHT22;5607;48.302;14.294;2023-11-21T03:03:03;7.20;1.00
11107;DHT22;5607;48.302;14.294;2023-11-21T03:05:50;7.10;1.00
11107;DHT22;5607;48.302;14.294;2023-11-21T03:08:36;7.20;1.00
11107;DHT22;5607;48.302;14.294;2023-11-21T03:11:22;7.30;1.00
11107;DHT22;5607;48.302;14.294;2023-11-21T03:14:08;7.30;1.00
11107;DHT22;5607;48.302;14.294;2023-11-21T03:16:55;7.30;1.00
11107;DHT22;5607;48.302;14.294;2023-11-21T03:19:41;7.40;1.00
11107;DHT22;5607;48.302;14.294;2023-11-21T03:22:27;7.40;1.00
11107;DHT22;5607;48.302;14.294;2023-11-21T03:25:14;7.40;1.00
11107;DHT22;5607;48.302;14.294;2023-11-21T03:28:01;7.40;1.00
11107;DHT22;5607;48.302;14.294;2023-11-21T03:30:48;7.50;1.00
11107;DHT22;5607;48.302;14.294;2023-11-21T03:33:34;7.40;1.00
11107;DHT22;5607;48.302;14.294;2023-11-21T03:36:21;7.30;1.00
11107;DHT22;5607;48.302;14.294;2023-11-21T03:39:07;7.30;1.00
11107;DHT22;5607;48.302;14.294;2023-11-21T03:41:53;7.30;1.00
11107;DHT22;5607;48.302;14.294;2023-11-21T03:44:39;7.20;1.00
11107;DHT22;5607;48.302;14.294;2023-11-21T03:47:26;7.20;1.00
11107;DHT22;5607;48.302;14.294;2023-11-21T03:50:12;7.20;1.00
11107;DHT22;5607;48.302;14.294;2023-11-21T03:52:58;7.00;1.00
11107;DHT22;5607;48.302;14.294;2023-11-21T03:55:45;6.80;1.00
11107;DHT22;5607;48.302;14.294;2023-11-21T03:58:31;6.80;1.00
11107;DHT22;5607;48.302;14.294;2023-11-21T04:01:21;6.80;1.00
11107;DHT22;5607;48.302;14.294;2023-11-21T04:04:07;6.90;1.00
11107;DHT22;5607;48.302;14.294;2023-11-21T04:06:54;6.90;1.00
11107;DHT22;5607;48.302;14.294;2023-11-21T04:09:40;6.90;1.00
11107;DHT22;5607;48.302;14.294;2023-11-21T04:12:27;6.90;1.00
11107;DHT22;5607;48.302;14.294;2023-11-21T04:15:13;6.80;1.00
11107;DHT22;5607;48.302;14.294;2023-11-21T04:18:00;6.90;1.00
11107;DHT22;5607;48.302;14.294;2023-11-21T04:20:48;7.00;1.00
11107;DHT22;5607;48.302;14.294;2023-11-21T04:23:34;7.00;1.00
11107;DHT22;5607;48.302;14.294;2023-11-21T04:26:20;7.00;1.00
11107;DHT22;5607;48.302;14.294;2023-11-21T04:29:07;7.10;1.00
11107;DHT22;5607;48.302;14.294;2023-11-21T04:31:53;7.20;1.00
11107;DHT22;5607;48.302;14.294;2023-11-21T04:34:40;7.20;1.00
11107;DHT22;5607;48.302;14.294;2023-11-21T04:37:26;7.20;1.00
11107;DHT22;5607;48.302;14.294;2023-11-21T04:40:12;7.00;1.00
11107;DHT22;5607;48.302;14.294;2023-11-21T04:42:58;6.90;1.00
11107;DHT22;5607;48.302;14.294;2023-11-21T04:45:45;6.70;1.00
11107;DHT22;5607;48.302;14.294;2023-11-21T04:48:31;6.60;1.00
11107;DHT22;5607;48.302;14.294;2023-11-21T04:51:17;6.60;1.00
11107;DHT22;5607;48.302;14.294;2023-11-21T04:54:04;6.50;1.00
11107;DHT22;5607;48.302;14.294;2023-11-21T04:56:51;6.60;1.00
11107;DHT22;5607;48.302;14.294;2023-11-21T04:59:38;6.50;1.00
11107;DHT22;5607;48.302;14.294;2023-11-21T05:02:24;6.40;1.00
11107;DHT22;5607;48.302;14.294;2023-11-21T05:05:10;6.40;1.00
11107;DHT22;5607;48.302;14.294;2023-11-21T05:07:56;6.40;1.00
11107;DHT22;5607;48.302;14.294;2023-11-21T05:10:45;6.50;1.00
11107;DHT22;5607;48.302;14.294;2023-11-21T05:13:33;6.60;1.00
11107;DHT22;5607;48.302;14.294;2023-11-21T05:16:20;6.70;1.00
11107;DHT22;5607;48.302;14.294;2023-11-21T05:19:06;6.90;1.00
11107;DHT22;5607;48.302;14.294;2023-11-21T05:21:52;6.80;1.00
11107;DHT22;5607;48.302;14.294;2023-11-21T05:24:38;6.90;1.00
11107;DHT22;5607;48.302;14.294;2023-11-21T05:27:28;7.00;1.00
11107;DHT22;5607;48.302;14.294;2023-11-21T05:30:15;7.00;1.00
11107;DHT22;5607;48.302;14.294;2023-11-21T05:33:01;7.00;1.00
11107;DHT22;5607;48.302;14.294;2023-11-21T05:35:47;7.00;1.00
11107;DHT22;5607;48.302;14.294;2023-11-21T05:38:37;7.00;1.00
11107;DHT22;5607;48.302;14.294;2023-11-21T05:41:23;7.00;1.00
11107;DHT22;5607;48.302;14.294;2023-11-21T05:44:12;7.20;1.00
11107;DHT22;5607;48.302;14.294;2023-11-21T05:47:00;7.30;1.00
11107;DHT22;5607;48.302;14.294;2023-11-21T05:49:46;7.40;1.00
11107;DHT22;5607;48.302;14.294;2023-11-21T05:52:37;7.40;1.00
11107;DHT22;5607;48.302;14.294;2023-11-21T05:55:23;7.50;1.00
11107;DHT22;5607;48.302;14.294;2023-11-21T05:58:11;7.50;1.00
11107;DHT22;5607;48.302;14.294;2023-11-21T06:00:59;7.50;1.00
11107;DHT22;5607;48.302;14.294;2023-11-21T06:03:46;7.50;1.00
11107;DHT22;5607;48.302;14.294;2023-11-21T06:06:33;7.50;1.00
11107;DHT22;5607;48.302;14.294;2023-11-21T06:09:19;7.50;1.00
11107;DHT22;5607;48.302;14.294;2023-11-21T06:12:05;7.60;1.00
11107;DHT22;5607;48.302;14.294;2023-11-21T06:14:52;7.60;1.00
11107;DHT22;5607;48.302;14.294;2023-11-21T06:17:38;7.60;1.00
11107;DHT22;5607;48.302;14.294;2023-11-21T06:20:26;7.60;1.00
11107;DHT22;5607;48.302;14.294;2023-11-21T06:23:13;7.70;1.00
11107;DHT22;5607;48.302;14.294;2023-11-21T06:26:00;7.70;1.00
11107;DHT22;5607;48.302;14.294;2023-11-21T06:28:46;7.70;1.00
11107;DHT22;5607;48.302;14.294;2023-11-21T06:31:32;7.70;1.00
11107;DHT22;5607;48.302;14.294;2023-11-21T06:34:18;7.70;1.00
11107;DHT22;5607;48.302;14.294;2023-11-21T06:37:05;7.70;1.00
11107;DHT22;5607;48.302;14.294;2023-11-21T06:39:52;7.70;1.00
11107;DHT22;5607;48.302;14.294;2023-11-21T06:42:38;7.60;1.00
11107;DHT22;5607;48.302;14.294;2023-11-21T06:45:25;7.60;1.00
11107;DHT22;5607;48.302;14.294;2023-11-21T06:48:11;7.60;1.00
11107;DHT22;5607;48.302;14.294;2023-11-21T06:50:57;7.60;1.00
11107;DHT22;5607;48.302;14.294;2023-11-21T06:53:43;7.60;1.00
11107;DHT22;5607;48.302;14.294;2023-11-21T06:56:30;7.60;1.00
11107;DHT22;5607;48.302;14.294;2023-11-21T06:59:17;7.70;1.00
11107;DHT22;5607;48.302;14.294;2023-11-21T07:02:03;7.60;1.00
11107;DHT22;5607;48.302;14.294;2023-11-21T07:04:52;7.60;1.00
11107;DHT22;5607;48.302;14.294;2023-11-21T07:07:38;7.70;1.00
11107;DHT22;5607;48.302;14.294;2023-11-21T07:10:26;7.80;1.00
11107;DHT22;5607;48.302;14.294;2023-11-21T07:13:13;8.00;1.00
11107;DHT22;5607;48.302;14.294;2023-11-21T07:16:00;8.10;1.00
11107;DHT22;5607;48.302;14.294;2023-11-21T07:18:46;8.10;1.00
11107;DHT22;5607;48.302;14.294;2023-11-21T07:21:33;8.20;1.00
11107;DHT22;5607;48.302;14.294;2023-11-21T07:24:19;8.30;1.00
11107;DHT22;5607;48.302;14.294;2023-11-21T07:27:05;8.40;1.00
11107;DHT22;5607;48.302;14.294;2023-11-21T07:29:53;8.40;1.00
11107;DHT22;5607;48.302;14.294;2023-11-21T07:32:39;8.40;1.00
11107;DHT22;5607;48.302;14.294;2023-11-21T07:35:26;8.40;1.00
11107;DHT22;5607;48.302;14.294;2023-11-21T07:38:12;8.20;1.00
11107;DHT22;5607;48.302;14.294;2023-11-21T07:40:59;8.10;1.00
11107;DHT22;5607;48.302;14.294;2023-11-21T07:43:49;8.00;1.00
11107;DHT22;5607;48.302;14.294;2023-11-21T07:46:36;7.80;1.00
11107;DHT22;5607;48.302;14.294;2023-11-21T07:49:23;7.90;1.00
11107;DHT22;5607;48.302;14.294;2023-11-21T07:52:09;7.90;1.00
11107;DHT22;5607;48.302;14.294;2023-11-21T07:54:56;8.10;1.00
11107;DHT22;5607;48.302;14.294;2023-11-21T07:57:42;8.20;1.00
11107;DHT22;5607;48.302;14.294;2023-11-21T08:00:29;8.40;1.00
11107;DHT22;5607;48.302;14.294;2023-11-21T08:03:17;8.40;1.00
11107;DHT22;5607;48.302;14.294;2023-11-21T08:06:03;8.50;1.00
11107;DHT22;5607;48.302;14.294;2023-11-21T08:08:51;8.60;1.00
11107;DHT22;5607;48.302;14.294;2023-11-21T08:11:38;8.70;1.00
11107;DHT22;5607;48.302;14.294;2023-11-21T08:14:26;8.70;1.00
11107;DHT22;5607;48.302;14.294;2023-11-21T08:17:12;8.90;1.00
11107;DHT22;5607;48.302;14.294;2023-11-21T08:19:58;9.00;1.00
11107;DHT22;5607;48.302;14.294;2023-11-21T08:22:44;9.00;1.00
11107;DHT22;5607;48.302;14.294;2023-11-21T08:25:31;9.00;1.00
11107;DHT22;5607;48.302;14.294;2023-11-21T08:28:18;9.20;1.00
11107;DHT22;5607;48.302;14.294;2023-11-21T08:31:04;9.30;1.00
11107;DHT22;5607;48.302;14.294;2023-11-21T08:33:50;9.40;1.00
11107;DHT22;5607;48.302;14.294;2023-11-21T08:36:40;9.50;1.00
11107;DHT22;5607;48.302;14.294;2023-11-21T08:39:27;9.50;1.00
11107;DHT22;5607;48.302;14.294;2023-11-21T08:42:13;9.50;1.00
11107;DHT22;5607;48.302;14.294;2023-11-21T08:45:00;9.40;1.00
11107;DHT22;5607;48.302;14.294;2023-11-21T08:47:46;9.30;1.00
11107;DHT22;5607;48.302;14.294;2023-11-21T08:50:32;9.30;1.00
11107;DHT22;5607;48.302;14.294;2023-11-21T08:53:20;9.20;1.00
11107;DHT22;5607;48.302;14.294;2023-11-21T08:56:06;9.40;1.00
11107;DHT22;5607;48.302;14.294;2023-11-21T08:58:52;9.50;1.00
11107;DHT22;5607;48.302;14.294;2023-11-21T09:01:39;9.50;1.00
11107;DHT22;5607;48.302;14.294;2023-11-21T09:04:25;9.60;1.00
11107;DHT22;5607;48.302;14.294;2023-11-21T09:07:13;9.80;1.00
11107;DHT22;5607;48.302;14.294;2023-11-21T09:09:59;10.00;1.00
11107;DHT22;5607;48.302;14.294;2023-11-21T09:12:47;10.00;1.00
11107;DHT22;5607;48.302;14.294;2023-11-21T09:15:33;10.00;1.00
11107;DHT22;5607;48.302;14.294;2023-11-21T09:18:20;10.00;1.00
11107;DHT22;5607;48.302;14.294;2023-11-21T09:21:06;10.00;1.00
11107;DHT22;5607;48.302;14.294;2023-11-21T09:23:52;10.00;1.00
11107;DHT22;5607;48.302;14.294;2023-11-21T09:26:38;9.90;1.00
11107;DHT22;5607;48.302;14.294;2023-11-21T09:29:25;10.00;1.00
11107;DHT22;5607;48.302;14.294;2023-11-21T09:32:12;10.00;1.00
11107;DHT22;5607;48.302;14.294;2023-11-21T09:35:00;10.10;1.00
11107;DHT22;5607;48.302;14.294;2023-11-21T09:37:49;10.00;1.00
11107;DHT22;5607;48.302;14.294;2023-11-21T09:40:36;10.10;1.00
11107;DHT22;5607;48.302;14.294;2023-11-21T09:43:24;10.10;1.00
11107;DHT22;5607;48.302;14.294;2023-11-21T09:46:13;10.10;1.40
11107;DHT22;5607;48.302;14.294;2023-11-21T09:49:05;10.10;1.00
11107;DHT22;5607;48.302;14.294;2023-11-21T09:51:58;10.00;1.00
11107;DHT22;5607;48.302;14.294;2023-11-21T09:54:44;9.80;1.00
11107;DHT22;5607;48.302;14.294;2023-11-21T09:57:31;9.80;1.00
11107;DHT22;5607;48.302;14.294;2023-11-21T10:00:17;9.90;1.00
11107;DHT22;5607;48.302;14.294;2023-11-21T10:03:06;10.00;1.00
11107;DHT22;5607;48.302;14.294;2023-11-21T10:05:53;10.20;1.00
11107;DHT22;5607;48.302;14.294;2023-11-21T10:08:39;10.40;1.00
11107;DHT22;5607;48.302;14.294;2023-11-21T10:11:27;10.40;1.00
11107;DHT22;5607;48.302;14.294;2023-11-21T10:14:13;10.40;1.00
11107;DHT22;5607;48.302;14.294;2023-11-21T10:17:00;10.50;1.00
11107;DHT22;5607;48.302;14.294;2023-11-21T10:19:46;10.50;1.00
11107;DHT22;5607;48.302;14.294;2023-11-21T10:22:38;10.60;99.90
11107;DHT22;5607;48.302;14.294;2023-11-21T10:25:27;10.50;99.90
11107;DHT22;5607;48.302;14.294;2023-11-21T10:28:13;10.30;1.00
11107;DHT22;5607;48.302;14.294;2023-11-21T10:30:59;10.40;1.00
11107;DHT22;5607;48.302;14.294;2023-11-21T10:33:46;10.50;1.00
11107;DHT22;5607;48.302;14.294;2023-11-21T10:36:32;10.60;1.00
11107;DHT22;5607;48.302;14.294;2023-11-21T10:39:19;10.60;1.00
11107;DHT22;5607;48.302;14.294;2023-11-21T10:42:10;10.50;1.00
11107;DHT22;5607;48.302;14.294;2023-11-21T10:44:56;10.50;1.00
11107;DHT22;5607;48.302;14.294;2023-11-21T10:47:43;10.40;1.00
11107;DHT22;5607;48.302;14.294;2023-11-21T10:50:30;10.40;1.00
11107;DHT22;5607;48.302;14.294;2023-11-21T10:53:16;10.40;1.00
11107;DHT22;5607;48.302;14.294;2023-11-21T10:56:04;10.40;1.00
11107;DHT22;5607;48.302;14.294;2023-11-21T10:58:51;10.50;1.00
11107;DHT22;5607;48.302;14.294;2023-11-21T11:01:38;10.70;1.00
11107;DHT22;5607;48.302;14.294;2023-11-21T11:04:24;10.80;1.00
11107;DHT22;5607;48.302;14.294;2023-11-21T11:07:13;10.80;1.00
11107;DHT22;5607;48.302;14.294;2023-11-21T11:10:02;10.80;1.00
11107;DHT22;5607;48.302;14.294;2023-11-21T11:12:50;10.80;1.00
11107;DHT22;5607;48.302;14.294;2023-11-21T11:15:38;11.00;1.00
11107;DHT22;5607;48.302;14.294;2023-11-21T11:18:26;11.10;1.00
11107;DHT22;5607;48.302;14.294;2023-11-21T11:27:07;11.00;1.00
11107;DHT22;5607;48.302;14.294;2023-11-21T11:32:58;11.10;1.00
11107;DHT22;5607;48.302;14.294;2023-11-21T11:36:06;11.10;1.00
11107;DHT22;5607;48.302;14.294;2023-11-21T11:38:53;11.00;1.00
11107;DHT22;5607;48.302;14.294;2023-11-21T11:41:42;11.10;1.00
11107;DHT22;5607;48.302;14.294;2023-11-21T11:47:32;11.10;1.00
11107;DHT22;5607;48.302;14.294;2023-11-21T11:50:23;11.20;99.90
11107;DHT22;5607;48.302;14.294;2023-11-21T11:53:14;11.10;1.00
11107;DHT22;5607;48.302;14.294;2023-11-21T11:59:06;11.30;99.90
11107;DHT22;5607;48.302;14.294;2023-11-21T12:01:56;11.10;99.90
11107;DHT22;5607;48.302;14.294;2023-11-21T12:04:42;11.10;99.90
11107;DHT22;5607;48.302;14.294;2023-11-21T12:07:39;11.20;99.90
11107;DHT22;5607;48.302;14.294;2023-11-21T12:10:26;11.10;99.90
11107;DHT22;5607;48.302;14.294;2023-11-21T12:13:12;11.10;99.90
11107;DHT22;5607;48.302;14.294;2023-11-21T12:15:59;11.20;99.90
11107;DHT22;5607;48.302;14.294;2023-11-21T12:18:46;11.30;99.90
11107;DHT22;5607;48.302;14.294;2023-11-21T12:21:32;11.30;99.90
11107;DHT22;5607;48.302;14.294;2023-11-21T12:24:18;11.20;99.90
11107;DHT22;5607;48.302;14.294;2023-11-21T12:27:05;11.10;99.90
11107;DHT22;5607;48.302;14.294;2023-11-21T12:29:51;11.10;99.90
11107;DHT22;5607;48.302;14.294;2023-11-21T12:32:37;11.10;99.90
11107;DHT22;5607;48.302;14.294;2023-11-21T12:35:24;11.00;99.90
11107;DHT22;5607;48.302;14.294;2023-11-21T12:38:11;11.10;99.90
11107;DHT22;5607;48.302;14.294;2023-11-21T12:40:57;11.00;99.90
11107;DHT22;5607;48.302;14.294;2023-11-21T12:43:43;11.10;99.90
11107;DHT22;5607;48.302;14.294;2023-11-21T12:46:30;11.20;99.90
11107;DHT22;5607;48.302;14.294;2023-11-21T12:49:19;11.30;99.90
11107;DHT22;5607;48.302;14.294;2023-11-21T12:52:05;11.30;99.90
11107;DHT22;5607;48.302;14.294;2023-11-21T12:54:51;11.10;99.90
11107;DHT22;5607;48.302;14.294;2023-11-21T12:57:40;11.10;99.90
11107;DHT22;5607;48.302;14.294;2023-11-21T13:00:31;11.00;99.90
11107;DHT22;5607;48.302;14.294;2023-11-21T13:03:19;11.10;99.90
11107;DHT22;5607;48.302;14.294;2023-11-21T13:06:11;11.10;99.90
11107;DHT22;5607;48.302;14.294;2023-11-21T13:08:58;11.20;99.90
11107;DHT22;5607;48.302;14.294;2023-11-21T13:11:45;11.00;99.90
11107;DHT22;5607;48.302;14.294;2023-11-21T13:14:31;11.10;99.90
11107;DHT22;5607;48.302;14.294;2023-11-21T13:17:18;11.00;99.90
11107;DHT22;5607;48.302;14.294;2023-11-21T13:20:05;10.90;99.90
11107;DHT22;5607;48.302;14.294;2023-11-21T13:22:54;10.90;99.90
11107;DHT22;5607;48.302;14.294;2023-11-21T13:25:43;11.10;99.90
11107;DHT22;5607;48.302;14.294;2023-11-21T13:28:31;11.00;99.90
11107;DHT22;5607;48.302;14.294;2023-11-21T13:31:19;11.10;99.90
11107;DHT22;5607;48.302;14.294;2023-11-21T13:34:12;11.00;99.90
11107;DHT22;5607;48.302;14.294;2023-11-21T13:37:00;11.10;99.90
11107;DHT22;5607;48.302;14.294;2023-11-21T13:39:49;10.90;99.90
11107;DHT22;5607;48.302;14.294;2023-11-21T13:42:36;10.70;99.90
11107;DHT22;5607;48.302;14.294;2023-11-21T13:45:22;10.70;1.00
11107;DHT22;5607;48.302;14.294;2023-11-21T13:48:09;10.70;99.90
11107;DHT22;5607;48.302;14.294;2023-11-21T13:51:17;10.80;99.90
11107;DHT22;5607;48.302;14.294;2023-11-21T13:54:03;10.90;99.90
11107;DHT22;5607;48.302;14.294;2023-11-21T13:56:55;10.90;99.90
11107;DHT22;5607;48.302;14.294;2023-11-21T13:59:41;10.90;99.90
11107;DHT22;5607;48.302;14.294;2023-11-21T14:02:30;10.80;99.90
11107;DHT22;5607;48.302;14.294;2023-11-21T14:05:25;10.90;99.90
11107;DHT22;5607;48.302;14.294;2023-11-21T14:08:15;10.90;99.90
11107;DHT22;5607;48.302;14.294;2023-11-21T14:11:07;10.80;99.90
11107;DHT22;5607;48.302;14.294;2023-11-21T14:13:53;10.80;1.40
11107;DHT22;5607;48.302;14.294;2023-11-21T14:16:40;10.80;1.00
11107;DHT22;5607;48.302;14.294;2023-11-21T14:19:28;10.70;1.00
11107;DHT22;5607;48.302;14.294;2023-11-21T14:22:18;10.70;1.00
11107;DHT22;5607;48.302;14.294;2023-11-21T14:25:04;10.60;1.00
11107;DHT22;5607;48.302;14.294;2023-11-21T14:27:51;10.50;1.00
11107;DHT22;5607;48.302;14.294;2023-11-21T14:30:37;10.50;1.00
11107;DHT22;5607;48.302;14.294;2023-11-21T14:33:28;10.60;1.00
11107;DHT22;5607;48.302;14.294;2023-11-21T14:36:14;10.70;1.00
11107;DHT22;5607;48.302;14.294;2023-11-21T14:39:03;10.70;1.00
11107;DHT22;5607;48.302;14.294;2023-11-21T14:41:53;10.60;1.00
11107;DHT22;5607;48.302;14.294;2023-11-21T14:44:42;10.60;1.00
11107;DHT22;5607;48.302;14.294;2023-11-21T14:47:28;10.50;1.00
11107;DHT22;5607;48.302;14.294;2023-11-21T14:50:15;10.40;1.00
11107;DHT22;5607;48.302;14.294;2023-11-21T14:53:29;10.30;1.00
11107;DHT22;5607;48.302;14.294;2023-11-21T14:56:39;10.20;1.00
11107;DHT22;5607;48.302;14.294;2023-11-21T14:59:28;10.30;1.00
11107;DHT22;5607;48.302;14.294;2023-11-21T15:02:14;10.40;1.00
11107;DHT22;5607;48.302;14.294;2023-11-21T15:05:01;10.40;1.00
11107;DHT22;5607;48.302;14.294;2023-11-21T15:07:48;10.40;1.00
11107;DHT22;5607;48.302;14.294;2023-11-21T15:10:35;10.40;1.00
11107;DHT22;5607;48.302;14.294;2023-11-21T15:13:32;10.40;1.00
11107;DHT22;5607;48.302;14.294;2023-11-21T15:16:19;10.40;1.00
11107;DHT22;5607;48.302;14.294;2023-11-21T15:19:05;10.30;1.00
11107;DHT22;5607;48.302;14.294;2023-11-21T15:21:51;10.30;1.00
11107;DHT22;5607;48.302;14.294;2023-11-21T15:24:38;10.20;1.00
11107;DHT22;5607;48.302;14.294;2023-11-21T15:27:24;10.10;1.00
11107;DHT22;5607;48.302;14.294;2023-11-21T15:30:11;10.10;1.00
11107;DHT22;5607;48.302;14.294;2023-11-21T15:32:58;10.10;1.00
11107;DHT22;5607;48.302;14.294;2023-11-21T15:35:45;10.10;1.00
11107;DHT22;5607;48.302;14.294;2023-11-21T15:38:31;10.00;1.00
11107;DHT22;5607;48.302;14.294;2023-11-21T15:41:19;9.90;1.00
11107;DHT22;5607;48.302;14.294;2023-11-21T15:44:06;10.00;1.00
11107;DHT22;5607;48.302;14.294;2023-11-21T15:46:53;9.90;1.00
11107;DHT22;5607;48.302;14.294;2023-11-21T15:49:40;10.00;1.00
11107;DHT22;5607;48.302;14.294;2023-11-21T15:52:26;10.00;1.00
11107;DHT22;5607;48.302;14.294;2023-11-21T15:55:14;10.10;1.00
11107;DHT22;5607;48.302;14.294;2023-11-21T15:58:01;10.10;1.00
11107;DHT22;5607;48.302;14.294;2023-11-21T16:00:50;10.00;1.00
11107;DHT22;5607;48.302;14.294;2023-11-21T16:03:37;10.10;1.00
11107;DHT22;5607;48.302;14.294;2023-11-21T16:06:23;10.10;1.00
11107;DHT22;5607;48.302;14.294;2023-11-21T16:09:10;10.10;1.00
11107;DHT22;5607;48.302;14.294;2023-11-21T16:12:08;10.10;1.00
11107;DHT22;5607;48.302;14.294;2023-11-21T16:14:54;10.10;1.00
11107;DHT22;5607;48.302;14.294;2023-11-21T16:17:40;10.10;1.00
11107;DHT22;5607;48.302;14.294;2023-11-21T16:20:27;10.10;1.00
11107;DHT22;5607;48.302;14.294;2023-11-21T16:23:15;10.10;1.00
11107;DHT22;5607;48.302;14.294;2023-11-21T16:26:05;10.10;1.00
11107;DHT22;5607;48.302;14.294;2023-11-21T16:28:51;10.20;1.00
11107;DHT22;5607;48.302;14.294;2023-11-21T16:31:38;10.10;1.00
11107;DHT22;5607;48.302;14.294;2023-11-21T16:34:24;10.10;1.00
11107;DHT22;5607;48.302;14.294;2023-11-21T16:37:11;10.10;1.00
11107;DHT22;5607;48.302;14.294;2023-11-21T16:39:57;10.10;1.00
11107;DHT22;5607;48.302;14.294;2023-11-21T16:42:44;10.10;1.00
11107;DHT22;5607;48.302;14.294;2023-11-21T16:45:32;10.10;1.00
11107;DHT22;5607;48.302;14.294;2023-11-21T16:48:18;10.10;1.00
11107;DHT22;5607;48.302;14.294;2023-11-21T16:51:04;10.10;1.00
11107;DHT22;5607;48.302;14.294;2023-11-21T16:53:51;10.10;1.00
11107;DHT22;5607;48.302;14.294;2023-11-21T16:56:37;10.10;1.00
11107;DHT22;5607;48.302;14.294;2023-11-21T16:59:23;10.10;1.00
11107;DHT22;5607;48.302;14.294;2023-11-21T17:02:10;10.00;1.00
11107;DHT22;5607;48.302;14.294;2023-11-21T17:04:57;10.00;1.00
11107;DHT22;5607;48.302;14.294;2023-11-21T17:07:45;10.00;1.00
11107;DHT22;5607;48.302;14.294;2023-11-21T17:10:31;10.10;1.00
11107;DHT22;5607;48.302;14.294;2023-11-21T17:13:18;10.10;1.00
11107;DHT22;5607;48.302;14.294;2023-11-21T17:16:04;10.00;1.00
11107;DHT22;5607;48.302;14.294;2023-11-21T17:18:53;10.00;1.00
11107;DHT22;5607;48.302;14.294;2023-11-21T17:21:40;9.90;1.00
11107;DHT22;5607;48.302;14.294;2023-11-21T17:24:28;9.90;1.00
11107;DHT22;5607;48.302;14.294;2023-11-21T17:27:14;9.90;1.00
11107;DHT22;5607;48.302;14.294;2023-11-21T17:30:00;9.90;1.00
11107;DHT22;5607;48.302;14.294;2023-11-21T17:32:48;9.80;1.00
11107;DHT22;5607;48.302;14.294;2023-11-21T17:35:35;9.80;1.00
11107;DHT22;5607;48.302;14.294;2023-11-21T17:38:21;9.70;1.00
11107;DHT22;5607;48.302;14.294;2023-11-21T17:41:07;9.60;1.00
11107;DHT22;5607;48.302;14.294;2023-11-21T17:43:57;9.60;1.00
11107;DHT22;5607;48.302;14.294;2023-11-21T17:46:43;9.60;1.00
11107;DHT22;5607;48.302;14.294;2023-11-21T17:49:31;9.40;1.00
11107;DHT22;5607;48.302;14.294;2023-11-21T17:52:18;9.40;1.00
11107;DHT22;5607;48.302;14.294;2023-11-21T17:55:06;9.30;1.00
11107;DHT22;5607;48.302;14.294;2023-11-21T18:00:59;9.20;1.00
11107;DHT22;5607;48.302;14.294;2023-11-21T18:03:46;9.10;1.00
11107;DHT22;5607;48.302;14.294;2023-11-21T18:06:32;9.10;1.00
11107;DHT22;5607;48.302;14.294;2023-11-21T18:09:19;9.10;1.00
11107;DHT22;5607;48.302;14.294;2023-11-21T18:12:06;9.10;1.00
11107;DHT22;5607;48.302;14.294;2023-11-21T18:14:53;9.10;1.00
11107;DHT22;5607;48.302;14.294;2023-11-21T18:17:40;9.20;1.00
11107;DHT22;5607;48.302;14.294;2023-11-21T18:20:26;9.20;1.00